sensor_id;sensor_type;location;lat;lon;timestamp;pressure;altitude;pressure_sealevel;temperature;humidity
64521;BME280;50896;46.714;17.322;2022-08-21T00:02:25;100042.38;;;20.42;69.04
64521;BME280;50896;46.714;17.322;2022-08-21T00:04:53;100031.06;;;20.57;69.22
64521;BME280;50896;46.714;17.322;2022-08-21T00:07:23;100033.19;;;20.55;68.47
64521;BME280;50896;46.714;17.322;2022-08-21T00:09:51;100029.56;;;20.49;68.53
64521;BME280;50896;46.714;17.322;2022-08-21T00:12:19;100031.44;;;20.48;68.77
64521;BME280;50896;46.714;17.322;2022-08-21T00:14:46;100036.25;;;20.46;68.75
64521;BME280;50896;46.714;17.322;2022-08-21T00:17:13;100028.75;;;20.48;68.91
64521;BME280;50896;46.714;17.322;2022-08-21T00:19:40;100021.34;;;20.44;69.41
64521;BME280;50896;46.714;17.322;2022-08-21T00:22:07;100026.13;;;20.54;68.75
64521;BME280;50896;46.714;17.322;2022-08-21T00:24:34;100026.63;;;20.51;68.22
64521;BME280;50896;46.714;17.322;2022-08-21T00:27:01;100015.56;;;20.52;67.84
64521;BME280;50896;46.714;17.322;2022-08-21T00:29:27;100023.22;;;20.43;68.51
64521;BME280;50896;46.714;17.322;2022-08-21T00:31:54;100017.84;;;20.43;68.69
64521;BME280;50896;46.714;17.322;2022-08-21T00:34:21;100022.06;;;20.39;69.15
64521;BME280;50896;46.714;17.322;2022-08-21T00:36:48;100023.81;;;20.34;67.65
64521;BME280;50896;46.714;17.322;2022-08-21T00:39:15;100012.66;;;20.30;67.90
64521;BME280;50896;46.714;17.322;2022-08-21T00:41:42;100012.66;;;20.30;68.09
64521;BME280;50896;46.714;17.322;2022-08-21T00:44:11;100009.72;;;20.31;67.07
64521;BME280;50896;46.714;17.322;2022-08-21T00:46:40;100009.38;;;20.40;66.71
64521;BME280;50896;46.714;17.322;2022-08-21T00:49:11;100011.75;;;20.36;66.75
64521;BME280;50896;46.714;17.322;2022-08-21T00:51:53;100010.66;;;20.37;66.90
64521;BME280;50896;46.714;17.322;2022-08-21T00:54:24;100013.72;;;20.41;67.63
64521;BME280;50896;46.714;17.322;2022-08-21T00:56:57;100009.97;;;20.42;66.92
64521;BME280;50896;46.714;17.322;2022-08-21T00:59:27;100004.69;;;20.35;67.68
64521;BME280;50896;46.714;17.322;2022-08-21T01:01:56;99997.16;;;20.37;67.78
64521;BME280;50896;46.714;17.322;2022-08-21T01:04:23;99998.50;;;20.35;68.13
64521;BME280;50896;46.714;17.322;2022-08-21T01:06:49;100007.16;;;20.37;67.44
64521;BME280;50896;46.714;17.322;2022-08-21T01:09:18;100004.09;;;20.33;67.83
64521;BME280;50896;46.714;17.322;2022-08-21T01:11:46;100009.72;;;20.43;66.51
64521;BME280;50896;46.714;17.322;2022-08-21T01:14:14;100005.19;;;20.32;67.27
64521;BME280;50896;46.714;17.322;2022-08-21T01:16:46;100004.81;;;20.28;67.71
64521;BME280;50896;46.714;17.322;2022-08-21T01:19:16;100004.81;;;20.28;67.52
64521;BME280;50896;46.714;17.322;2022-08-21T01:21:44;100004.50;;;20.25;68.25
64521;BME280;50896;46.714;17.322;2022-08-21T01:24:11;100003.66;;;20.24;67.54
64521;BME280;50896;46.714;17.322;2022-08-21T01:26:39;99997.91;;;20.21;67.86
64521;BME280;50896;46.714;17.322;2022-08-21T01:31:40;99998.38;;;20.18;67.91
64521;BME280;50896;46.714;17.322;2022-08-21T01:34:07;99989.81;;;20.21;67.44
64521;BME280;50896;46.714;17.322;2022-08-21T01:36:34;99990.06;;;20.19;67.05
64521;BME280;50896;46.714;17.322;2022-08-21T01:39:03;99980.56;;;20.17;67.04
64521;BME280;50896;46.714;17.322;2022-08-21T01:41:30;99987.56;;;20.18;67.22
64521;BME280;50896;46.714;17.322;2022-08-21T01:43:57;99970.00;;;20.15;65.97
64521;BME280;50896;46.714;17.322;2022-08-21T01:46:24;99972.78;;;20.20;66.53
64521;BME280;50896;46.714;17.322;2022-08-21T01:48:51;99969.03;;;20.21;66.29
64521;BME280;50896;46.714;17.322;2022-08-21T01:51:18;99969.03;;;20.21;67.13
64521;BME280;50896;46.714;17.322;2022-08-21T01:53:45;99964.00;;;20.13;67.13
64521;BME280;50896;46.714;17.322;2022-08-21T01:56:14;99955.34;;;20.11;68.21
64521;BME280;50896;46.714;17.322;2022-08-21T01:58:43;99964.00;;;20.13;67.91
64521;BME280;50896;46.714;17.322;2022-08-21T02:01:11;99957.91;;;20.06;67.18
64521;BME280;50896;46.714;17.322;2022-08-21T02:03:38;99955.56;;;19.97;67.83
64521;BME280;50896;46.714;17.322;2022-08-21T02:06:06;99956.38;;;19.98;67.91
64521;BME280;50896;46.714;17.322;2022-08-21T02:08:34;99955.00;;;19.95;67.61
64521;BME280;50896;46.714;17.322;2022-08-21T02:11:01;99960.97;;;19.97;66.63
64521;BME280;50896;46.714;17.322;2022-08-21T02:13:28;99952.19;;;19.90;67.75
64521;BME280;50896;46.714;17.322;2022-08-21T02:15:55;99956.03;;;19.94;67.83
64521;BME280;50896;46.714;17.322;2022-08-21T02:18:21;99953.13;;;19.96;68.30
64521;BME280;50896;46.714;17.322;2022-08-21T02:20:49;99958.50;;;19.96;67.65
64521;BME280;50896;46.714;17.322;2022-08-21T02:23:23;99960.50;;;20.01;67.80
64521;BME280;50896;46.714;17.322;2022-08-21T02:26:01;99954.16;;;19.95;67.62
64521;BME280;50896;46.714;17.322;2022-08-21T02:28:29;99960.25;;;20.02;67.15
64521;BME280;50896;46.714;17.322;2022-08-21T02:30:56;99957.56;;;20.02;67.17
64521;BME280;50896;46.714;17.322;2022-08-21T02:33:25;99959.56;;;19.95;67.27
64521;BME280;50896;46.714;17.322;2022-08-21T02:35:52;99956.84;;;19.95;66.76
64521;BME280;50896;46.714;17.322;2022-08-21T02:38:23;99959.19;;;20.03;67.18
64521;BME280;50896;46.714;17.322;2022-08-21T02:40:52;99962.13;;;19.90;68.06
64521;BME280;50896;46.714;17.322;2022-08-21T02:43:21;99966.94;;;19.88;67.96
64521;BME280;50896;46.714;17.322;2022-08-21T02:45:49;99964.38;;;19.81;68.20
64521;BME280;50896;46.714;17.322;2022-08-21T02:48:20;99964.13;;;19.83;68.33
64521;BME280;50896;46.714;17.322;2022-08-21T02:50:56;99972.09;;;19.77;67.85
64521;BME280;50896;46.714;17.322;2022-08-21T02:53:24;99971.41;;;19.82;67.88
64521;BME280;50896;46.714;17.322;2022-08-21T02:55:52;99978.22;;;19.85;68.41
64521;BME280;50896;46.714;17.322;2022-08-21T02:58:27;99966.72;;;19.89;67.42
64521;BME280;50896;46.714;17.322;2022-08-21T03:00:55;99965.41;;;19.80;68.04
64521;BME280;50896;46.714;17.322;2022-08-21T03:03:22;99961.44;;;19.83;67.25
64521;BME280;50896;46.714;17.322;2022-08-21T03:05:49;99965.41;;;19.80;67.99
64521;BME280;50896;46.714;17.322;2022-08-21T03:08:16;99968.31;;;19.78;67.74
64521;BME280;50896;46.714;17.322;2022-08-21T03:10:49;99965.28;;;19.75;67.97
64521;BME280;50896;46.714;17.322;2022-08-21T03:13:17;99961.88;;;19.68;68.71
64521;BME280;50896;46.714;17.322;2022-08-21T03:15:46;99959.28;;;19.61;68.20
64521;BME280;50896;46.714;17.322;2022-08-21T03:18:15;99959.06;;;19.62;69.07
64521;BME280;50896;46.714;17.322;2022-08-21T03:20:42;99957.16;;;19.63;69.01
64521;BME280;50896;46.714;17.322;2022-08-21T03:23:09;99974.75;;;19.66;68.28
64521;BME280;50896;46.714;17.322;2022-08-21T03:25:42;99973.94;;;19.65;68.82
64521;BME280;50896;46.714;17.322;2022-08-21T03:28:15;99957.88;;;19.70;67.90
64521;BME280;50896;46.714;17.322;2022-08-21T03:30:44;99965.88;;;19.65;68.04
64521;BME280;50896;46.714;17.322;2022-08-21T03:33:11;99961.41;;;19.71;68.99
64521;BME280;50896;46.714;17.322;2022-08-21T03:35:45;99969.25;;;19.60;69.62
64521;BME280;50896;46.714;17.322;2022-08-21T03:38:13;99965.97;;;19.58;68.82
64521;BME280;50896;46.714;17.322;2022-08-21T03:40:41;99968.19;;;19.61;69.08
64521;BME280;50896;46.714;17.322;2022-08-21T03:43:08;99965.16;;;19.58;68.95
64521;BME280;50896;46.714;17.322;2022-08-21T03:45:37;99962.81;;;19.61;67.95
64521;BME280;50896;46.714;17.322;2022-08-21T03:48:05;99956.13;;;19.64;68.92
64521;BME280;50896;46.714;17.322;2022-08-21T03:50:36;99961.50;;;19.64;68.66
64521;BME280;50896;46.714;17.322;2022-08-21T03:53:11;99955.19;;;19.70;69.36
64521;BME280;50896;46.714;17.322;2022-08-21T03:55:47;99965.38;;;19.68;68.53
64521;BME280;50896;46.714;17.322;2022-08-21T03:58:16;99963.03;;;19.60;69.55
64521;BME280;50896;46.714;17.322;2022-08-21T04:00:46;99959.06;;;19.62;68.25
64521;BME280;50896;46.714;17.322;2022-08-21T04:03:13;99974.19;;;19.63;69.83
64521;BME280;50896;46.714;17.322;2022-08-21T04:05:41;99969.97;;;19.68;69.21
64521;BME280;50896;46.714;17.322;2022-08-21T04:08:08;99958.25;;;19.74;69.47
64521;BME280;50896;46.714;17.322;2022-08-21T04:10:37;99964.22;;;19.76;69.75
64521;BME280;50896;46.714;17.322;2022-08-21T04:13:05;99963.25;;;19.70;69.49
64521;BME280;50896;46.714;17.322;2022-08-21T04:15:32;99964.44;;;19.62;69.68
64521;BME280;50896;46.714;17.322;2022-08-21T04:18:03;99955.66;;;19.67;69.73
64521;BME280;50896;46.714;17.322;2022-08-21T04:20:30;99962.22;;;19.71;69.05
64521;BME280;50896;46.714;17.322;2022-08-21T04:22:57;99958.09;;;19.69;69.77
64521;BME280;50896;46.714;17.322;2022-08-21T04:25:24;99961.53;;;19.76;68.66
64521;BME280;50896;46.714;17.322;2022-08-21T04:27:54;99960.56;;;19.70;69.44
64521;BME280;50896;46.714;17.322;2022-08-21T04:30:21;99958.25;;;19.62;70.19
64521;BME280;50896;46.714;17.322;2022-08-21T04:32:55;99968.09;;;19.68;69.00
64521;BME280;50896;46.714;17.322;2022-08-21T04:35:25;99964.34;;;19.69;68.87
64521;BME280;50896;46.714;17.322;2022-08-21T04:37:52;99969.25;;;19.72;68.46
64521;BME280;50896;46.714;17.322;2022-08-21T04:40:20;99972.91;;;19.78;68.24
64521;BME280;50896;46.714;17.322;2022-08-21T04:42:51;99968.22;;;19.73;69.17
64521;BME280;50896;46.714;17.322;2022-08-21T04:47:54;99980.78;;;19.79;69.58
64521;BME280;50896;46.714;17.322;2022-08-21T04:50:25;99971.16;;;19.84;69.05
64521;BME280;50896;46.714;17.322;2022-08-21T04:53:04;99983.59;;;19.85;69.14
64521;BME280;50896;46.714;17.322;2022-08-21T04:55:32;99976.47;;;19.90;67.90
64521;BME280;50896;46.714;17.322;2022-08-21T04:57:59;99967.06;;;19.93;69.08
64521;BME280;50896;46.714;17.322;2022-08-21T05:00:26;99977.16;;;19.97;68.42
64521;BME280;50896;46.714;17.322;2022-08-21T05:02:54;99974.22;;;19.99;68.44
64521;BME280;50896;46.714;17.322;2022-08-21T05:05:27;99980.78;;;20.03;67.82
64521;BME280;50896;46.714;17.322;2022-08-21T05:07:57;99985.69;;;20.06;68.22
64521;BME280;50896;46.714;17.322;2022-08-21T05:10:25;99976.31;;;20.09;68.00
64521;BME280;50896;46.714;17.322;2022-08-21T05:12:53;99982.31;;;20.11;68.18
64521;BME280;50896;46.714;17.322;2022-08-21T05:15:20;99985.81;;;20.11;68.23
64521;BME280;50896;46.714;17.322;2022-08-21T05:17:47;99992.03;;;20.12;66.76
64521;BME280;50896;46.714;17.322;2022-08-21T05:20:26;100007.06;;;20.20;67.41
64521;BME280;50896;46.714;17.322;2022-08-21T05:22:53;99998.25;;;20.24;67.38
64521;BME280;50896;46.714;17.322;2022-08-21T05:25:19;99994.84;;;20.29;66.35
64521;BME280;50896;46.714;17.322;2022-08-21T05:27:49;100007.50;;;20.40;66.25
64521;BME280;50896;46.714;17.322;2022-08-21T05:30:19;100002.97;;;20.29;66.19
64521;BME280;50896;46.714;17.322;2022-08-21T05:32:47;100013.38;;;20.25;67.50
64521;BME280;50896;46.714;17.322;2022-08-21T05:35:14;100009.28;;;20.23;66.90
64521;BME280;50896;46.714;17.322;2022-08-21T05:37:41;100015.28;;;20.13;67.43
64521;BME280;50896;46.714;17.322;2022-08-21T05:40:08;100013.06;;;20.10;66.66
64521;BME280;50896;46.714;17.322;2022-08-21T05:42:49;100016.91;;;20.14;67.21
64521;BME280;50896;46.714;17.322;2022-08-21T05:45:28;100013.75;;;20.17;67.60
64521;BME280;50896;46.714;17.322;2022-08-21T05:48:16;100015.03;;;20.26;67.61
64521;BME280;50896;46.714;17.322;2022-08-21T05:50:44;100000.59;;;20.32;66.81
64521;BME280;50896;46.714;17.322;2022-08-21T05:53:13;100004.34;;;20.31;66.29
64521;BME280;50896;46.714;17.322;2022-08-21T05:55:41;100008.44;;;20.46;65.49
64521;BME280;50896;46.714;17.322;2022-08-21T05:58:19;100006.63;;;20.75;65.59
64521;BME280;50896;46.714;17.322;2022-08-21T06:00:47;100014.94;;;20.86;66.35
64521;BME280;50896;46.714;17.322;2022-08-21T06:03:18;100006.16;;;20.78;65.14
64521;BME280;50896;46.714;17.322;2022-08-21T06:05:46;100002.41;;;20.68;65.55
64521;BME280;50896;46.714;17.322;2022-08-21T06:08:14;100004.44;;;20.72;66.54
64521;BME280;50896;46.714;17.322;2022-08-21T06:10:42;100008.75;;;20.61;65.77
64521;BME280;50896;46.714;17.322;2022-08-21T06:13:09;100003.34;;;20.61;66.52
64521;BME280;50896;46.714;17.322;2022-08-21T06:15:36;100006.63;;;20.63;65.75
64521;BME280;50896;46.714;17.322;2022-08-21T06:18:02;100002.88;;;20.64;65.80
64521;BME280;50896;46.714;17.322;2022-08-21T06:20:29;100011.69;;;20.72;66.48
64521;BME280;50896;46.714;17.322;2022-08-21T06:22:56;99999.22;;;20.71;66.18
64521;BME280;50896;46.714;17.322;2022-08-21T06:25:23;100006.28;;;20.72;65.92
64521;BME280;50896;46.714;17.322;2022-08-21T06:27:51;100006.97;;;20.79;66.56
64521;BME280;50896;46.714;17.322;2022-08-21T06:30:18;99995.84;;;20.75;66.57
64521;BME280;50896;46.714;17.322;2022-08-21T06:32:45;99995.25;;;20.73;66.70
64521;BME280;50896;46.714;17.322;2022-08-21T06:35:12;99989.75;;;20.68;67.10
64521;BME280;50896;46.714;17.322;2022-08-21T06:37:38;99996.41;;;20.65;67.65
64521;BME280;50896;46.714;17.322;2022-08-21T06:40:05;99997.84;;;20.68;68.34
64521;BME280;50896;46.714;17.322;2022-08-21T06:42:39;99999.38;;;20.64;67.67
64521;BME280;50896;46.714;17.322;2022-08-21T06:45:09;99997.03;;;20.68;66.30
64521;BME280;50896;46.714;17.322;2022-08-21T06:47:35;99999.47;;;20.81;67.30
64521;BME280;50896;46.714;17.322;2022-08-21T06:50:03;99994.06;;;20.81;67.01
64521;BME280;50896;46.714;17.322;2022-08-21T06:52:30;99996.38;;;20.89;67.01
64521;BME280;50896;46.714;17.322;2022-08-21T06:54:56;99999.25;;;20.99;67.65
64521;BME280;50896;46.714;17.322;2022-08-21T06:57:26;100008.38;;;21.10;65.38
64521;BME280;50896;46.714;17.322;2022-08-21T06:59:53;100004.19;;;21.03;66.53
64521;BME280;50896;46.714;17.322;2022-08-21T07:02:19;100013.78;;;21.10;66.70
64521;BME280;50896;46.714;17.322;2022-08-21T07:04:46;100012.25;;;21.14;66.62
64521;BME280;50896;46.714;17.322;2022-08-21T07:07:13;100008.25;;;21.17;67.04
64521;BME280;50896;46.714;17.322;2022-08-21T07:09:40;100002.34;;;21.20;66.95
64521;BME280;50896;46.714;17.322;2022-08-21T07:12:07;100002.63;;;21.36;65.68
64521;BME280;50896;46.714;17.322;2022-08-21T07:14:34;99990.56;;;21.26;65.42
64521;BME280;50896;46.714;17.322;2022-08-21T07:17:01;99995.56;;;21.34;66.54
64521;BME280;50896;46.714;17.322;2022-08-21T07:19:28;100004.56;;;21.40;67.20
64521;BME280;50896;46.714;17.322;2022-08-21T07:21:58;99996.63;;;21.33;66.84
64521;BME280;50896;46.714;17.322;2022-08-21T07:24:27;99991.38;;;21.27;66.23
64521;BME280;50896;46.714;17.322;2022-08-21T07:26:53;99989.88;;;21.19;67.62
64521;BME280;50896;46.714;17.322;2022-08-21T07:29:20;100001.03;;;21.23;65.89
64521;BME280;50896;46.714;17.322;2022-08-21T07:31:47;99993.09;;;21.33;66.25
64521;BME280;50896;46.714;17.322;2022-08-21T07:34:14;100002.97;;;21.39;67.66
64521;BME280;50896;46.714;17.322;2022-08-21T07:36:41;100000.66;;;21.31;66.08
64521;BME280;50896;46.714;17.322;2022-08-21T07:39:08;100003.13;;;21.32;67.21
64521;BME280;50896;46.714;17.322;2022-08-21T07:41:35;100000.97;;;21.34;67.03
64521;BME280;50896;46.714;17.322;2022-08-21T07:44:01;99998.69;;;21.43;67.15
64521;BME280;50896;46.714;17.322;2022-08-21T07:46:32;99991.84;;;21.53;67.05
64521;BME280;50896;46.714;17.322;2022-08-21T07:48:58;99999.56;;;21.61;67.88
64521;BME280;50896;46.714;17.322;2022-08-21T07:51:27;99993.81;;;21.74;65.45
64521;BME280;50896;46.714;17.322;2022-08-21T07:53:55;99993.41;;;21.65;65.54
64521;BME280;50896;46.714;17.322;2022-08-21T07:56:23;99991.19;;;21.62;66.15
64521;BME280;50896;46.714;17.322;2022-08-21T07:58:49;100006.13;;;21.65;65.83
64521;BME280;50896;46.714;17.322;2022-08-21T08:01:17;99991.53;;;21.66;65.88
64521;BME280;50896;46.714;17.322;2022-08-21T08:03:44;99989.78;;;21.77;64.77
64521;BME280;50896;46.714;17.322;2022-08-21T08:06:11;99997.91;;;21.94;65.34
64521;BME280;50896;46.714;17.322;2022-08-21T08:08:40;99991.25;;;22.01;64.77
64521;BME280;50896;46.714;17.322;2022-08-21T08:11:08;99992.97;;;22.08;64.41
64521;BME280;50896;46.714;17.322;2022-08-21T08:13:40;99999.28;;;22.13;64.64
64521;BME280;50896;46.714;17.322;2022-08-21T08:16:07;99996.63;;;22.18;64.57
64521;BME280;50896;46.714;17.322;2022-08-21T08:18:34;99985.34;;;22.27;63.40
64521;BME280;50896;46.714;17.322;2022-08-21T08:21:01;99990.19;;;22.42;64.73
64521;BME280;50896;46.714;17.322;2022-08-21T08:23:28;99990.66;;;22.56;63.76
64521;BME280;50896;46.714;17.322;2022-08-21T08:25:56;99982.63;;;22.66;64.34
64521;BME280;50896;46.714;17.322;2022-08-21T08:28:23;99996.88;;;22.78;64.24
64521;BME280;50896;46.714;17.322;2022-08-21T08:30:50;99982.81;;;22.81;61.43
64521;BME280;50896;46.714;17.322;2022-08-21T08:33:18;99982.25;;;22.79;62.84
64521;BME280;50896;46.714;17.322;2022-08-21T08:35:48;99983.81;;;22.75;61.42
64521;BME280;50896;46.714;17.322;2022-08-21T08:38:18;99988.03;;;22.66;62.23
64521;BME280;50896;46.714;17.322;2022-08-21T08:41:17;99982.53;;;22.56;62.57
64521;BME280;50896;46.714;17.322;2022-08-21T08:43:54;99982.84;;;22.59;62.59
64521;BME280;50896;46.714;17.322;2022-08-21T08:46:47;99978.25;;;22.60;63.87
64521;BME280;50896;46.714;17.322;2022-08-21T08:49:31;99983.97;;;22.63;63.30
64521;BME280;50896;46.714;17.322;2022-08-21T08:52:22;99978.84;;;22.67;62.37
64521;BME280;50896;46.714;17.322;2022-08-21T08:55:06;99976.16;;;22.67;63.05
64521;BME280;50896;46.714;17.322;2022-08-21T08:57:36;99978.34;;;22.70;62.31
64521;BME280;50896;46.714;17.322;2022-08-21T09:00:09;99976.47;;;22.70;63.00
64521;BME280;50896;46.714;17.322;2022-08-21T09:02:42;99982.19;;;22.74;62.27
64521;BME280;50896;46.714;17.322;2022-08-21T09:05:27;99982.88;;;22.86;61.67
64521;BME280;50896;46.714;17.322;2022-08-21T09:11:04;99985.66;;;23.19;61.10
64521;BME280;50896;46.714;17.322;2022-08-21T09:19:11;99985.09;;;23.17;60.31
64521;BME280;50896;46.714;17.322;2022-08-21T09:22:06;99980.94;;;23.09;61.32
64521;BME280;50896;46.714;17.322;2022-08-21T09:24:51;99976.84;;;23.07;60.50
64521;BME280;50896;46.714;17.322;2022-08-21T09:27:20;99976.53;;;23.03;60.84
64521;BME280;50896;46.714;17.322;2022-08-21T09:29:52;99973.75;;;22.98;60.28
64521;BME280;50896;46.714;17.322;2022-08-21T09:32:27;99967.81;;;23.01;60.65
64521;BME280;50896;46.714;17.322;2022-08-21T09:37:35;99959.25;;;23.09;61.68
64521;BME280;50896;46.714;17.322;2022-08-21T09:40:41;99968.03;;;23.16;61.30
64521;BME280;50896;46.714;17.322;2022-08-21T09:45:35;99948.34;;;23.26;60.86
64521;BME280;50896;46.714;17.322;2022-08-21T09:48:24;99944.19;;;23.18;60.94
64521;BME280;50896;46.714;17.322;2022-08-21T09:50:53;99951.94;;;23.10;61.89
64521;BME280;50896;46.714;17.322;2022-08-21T09:53:23;99959.25;;;23.09;60.48
64521;BME280;50896;46.714;17.322;2022-08-21T09:55:59;99953.53;;;23.06;60.84
64521;BME280;50896;46.714;17.322;2022-08-21T09:58:50;99959.50;;;23.08;60.92
64521;BME280;50896;46.714;17.322;2022-08-21T10:01:23;99950.56;;;23.07;61.39
64521;BME280;50896;46.714;17.322;2022-08-21T10:04:10;99958.63;;;23.02;62.76
64521;BME280;50896;46.714;17.322;2022-08-21T10:06:37;99953.41;;;22.95;61.34
64521;BME280;50896;46.714;17.322;2022-08-21T10:09:21;99944.41;;;22.90;61.47
64521;BME280;50896;46.714;17.322;2022-08-21T10:12:22;99954.13;;;22.85;60.52
64521;BME280;50896;46.714;17.322;2022-08-21T10:17:36;99960.91;;;22.83;60.50
64521;BME280;50896;46.714;17.322;2022-08-21T10:20:14;99946.00;;;22.85;60.59
64521;BME280;50896;46.714;17.322;2022-08-21T10:22:54;99948.31;;;22.99;60.93
64521;BME280;50896;46.714;17.322;2022-08-21T10:25:35;99954.91;;;23.08;60.33
64521;BME280;50896;46.714;17.322;2022-08-21T10:31:42;99954.97;;;23.13;60.61
64521;BME280;50896;46.714;17.322;2022-08-21T10:37:31;99947.56;;;23.31;61.12
64521;BME280;50896;46.714;17.322;2022-08-21T10:48:25;99925.19;;;23.51;57.55
64521;BME280;50896;46.714;17.322;2022-08-21T10:53:49;99920.91;;;23.60;58.76
64521;BME280;50896;46.714;17.322;2022-08-21T10:56:22;99925.84;;;23.68;57.95
64521;BME280;50896;46.714;17.322;2022-08-21T11:04:34;99909.84;;;23.72;57.59
64521;BME280;50896;46.714;17.322;2022-08-21T11:09:45;99932.84;;;23.59;58.11
64521;BME280;50896;46.714;17.322;2022-08-21T11:12:29;99926.88;;;23.57;57.40
64521;BME280;50896;46.714;17.322;2022-08-21T11:15:07;99929.88;;;23.61;56.72
64521;BME280;50896;46.714;17.322;2022-08-21T11:18:24;99924.91;;;23.47;58.56
64521;BME280;50896;46.714;17.322;2022-08-21T11:23:53;99922.72;;;23.49;57.79
64521;BME280;50896;46.714;17.322;2022-08-21T11:29:12;99914.09;;;23.58;57.50
64521;BME280;50896;46.714;17.322;2022-08-21T11:34:35;99911.94;;;23.54;57.07
64521;BME280;50896;46.714;17.322;2022-08-21T11:45:54;99916.53;;;23.16;59.36
64521;BME280;50896;46.714;17.322;2022-08-21T11:54:16;99929.34;;;22.99;60.42
64521;BME280;50896;46.714;17.322;2022-08-21T11:57:03;99926.41;;;23.06;60.31
64521;BME280;50896;46.714;17.322;2022-08-21T12:02:29;99922.59;;;23.01;57.99
64521;BME280;50896;46.714;17.322;2022-08-21T12:05:07;99921.28;;;23.09;59.87
64521;BME280;50896;46.714;17.322;2022-08-21T12:07:40;99920.75;;;23.07;59.08
64521;BME280;50896;46.714;17.322;2022-08-21T12:10:15;99918.91;;;23.13;58.65
64521;BME280;50896;46.714;17.322;2022-08-21T12:12:44;99914.31;;;23.13;59.01
64521;BME280;50896;46.714;17.322;2022-08-21T12:15:27;99920.63;;;23.24;59.19
64521;BME280;50896;46.714;17.322;2022-08-21T12:18:03;99916.94;;;23.35;57.23
64521;BME280;50896;46.714;17.322;2022-08-21T12:25:47;99906.81;;;23.26;58.47
64521;BME280;50896;46.714;17.322;2022-08-21T12:28:26;99913.03;;;23.21;58.51
64521;BME280;50896;46.714;17.322;2022-08-21T12:30:53;99910.53;;;23.14;58.53
64521;BME280;50896;46.714;17.322;2022-08-21T12:33:30;99908.31;;;23.11;59.51
64521;BME280;50896;46.714;17.322;2022-08-21T12:36:11;99907.00;;;23.14;58.46
64521;BME280;50896;46.714;17.322;2022-08-21T12:38:51;99911.53;;;23.08;60.50
64521;BME280;50896;46.714;17.322;2022-08-21T12:41:24;99912.03;;;23.05;59.68
64521;BME280;50896;46.714;17.322;2022-08-21T12:43:57;99901.66;;;22.97;60.70
64521;BME280;50896;46.714;17.322;2022-08-21T12:46:43;99905.47;;;22.96;60.51
64521;BME280;50896;46.714;17.322;2022-08-21T12:49:16;99894.09;;;22.99;59.00
64521;BME280;50896;46.714;17.322;2022-08-21T12:51:48;99903.28;;;22.98;58.25
64521;BME280;50896;46.714;17.322;2022-08-21T12:54:28;99892.72;;;22.96;58.59
64521;BME280;50896;46.714;17.322;2022-08-21T12:57:01;99884.06;;;22.99;58.68
64521;BME280;50896;46.714;17.322;2022-08-21T12:59:29;99882.19;;;23.00;57.98
64521;BME280;50896;46.714;17.322;2022-08-21T13:01:59;99880.03;;;23.02;57.93
64521;BME280;50896;46.714;17.322;2022-08-21T13:04:40;99884.59;;;22.96;58.83
64521;BME280;50896;46.714;17.322;2022-08-21T13:07:10;99881.06;;;22.96;58.93
64521;BME280;50896;46.714;17.322;2022-08-21T13:09:47;99880.81;;;22.97;59.56
64521;BME280;50896;46.714;17.322;2022-08-21T13:12:16;99874.00;;;22.95;59.05
64521;BME280;50896;46.714;17.322;2022-08-21T13:14:45;99871.81;;;22.92;58.61
64521;BME280;50896;46.714;17.322;2022-08-21T13:17:14;99874.22;;;22.88;61.01
64521;BME280;50896;46.714;17.322;2022-08-21T13:22:46;99881.66;;;22.70;60.76
64521;BME280;50896;46.714;17.322;2022-08-21T13:25:16;99890.22;;;22.62;60.78
64521;BME280;50896;46.714;17.322;2022-08-21T13:27:55;99895.84;;;22.56;61.20
64521;BME280;50896;46.714;17.322;2022-08-21T13:30:23;99900.22;;;22.62;61.09
64521;BME280;50896;46.714;17.322;2022-08-21T13:32:56;99917.56;;;22.61;61.42
64521;BME280;50896;46.714;17.322;2022-08-21T13:35:27;99898.81;;;22.54;61.44
64521;BME280;50896;46.714;17.322;2022-08-21T13:37:55;99905.28;;;22.53;62.25
64521;BME280;50896;46.714;17.322;2022-08-21T13:40:32;99902.28;;;22.49;60.83
64521;BME280;50896;46.714;17.322;2022-08-21T13:43:12;99898.50;;;22.50;62.67
64521;BME280;50896;46.714;17.322;2022-08-21T13:45:51;99898.13;;;22.42;62.75
64521;BME280;50896;46.714;17.322;2022-08-21T13:48:19;99897.81;;;22.38;62.41
64521;BME280;50896;46.714;17.322;2022-08-21T13:50:46;99902.16;;;22.39;62.22
64521;BME280;50896;46.714;17.322;2022-08-21T13:53:29;99899.84;;;22.31;62.41
64521;BME280;50896;46.714;17.322;2022-08-21T13:55:57;99902.41;;;22.38;63.08
64521;BME280;50896;46.714;17.322;2022-08-21T13:58:32;99898.94;;;22.42;61.46
64521;BME280;50896;46.714;17.322;2022-08-21T14:01:00;99898.13;;;22.42;61.45
64521;BME280;50896;46.714;17.322;2022-08-21T14:03:45;99900.06;;;22.46;61.90
64521;BME280;50896;46.714;17.322;2022-08-21T14:06:18;99902.28;;;22.49;61.99
64521;BME280;50896;46.714;17.322;2022-08-21T14:08:54;99903.91;;;22.50;61.56
64521;BME280;50896;46.714;17.322;2022-08-21T14:11:21;99908.50;;;22.50;60.90
64521;BME280;50896;46.714;17.322;2022-08-21T14:13:55;99899.69;;;22.60;61.34
64521;BME280;50896;46.714;17.322;2022-08-21T14:16:26;99897.03;;;22.65;61.25
64521;BME280;50896;46.714;17.322;2022-08-21T14:21:31;99882.13;;;22.67;59.52
64521;BME280;50896;46.714;17.322;2022-08-21T14:27:04;99872.13;;;22.68;59.68
64521;BME280;50896;46.714;17.322;2022-08-21T14:29:41;99887.81;;;22.66;59.60
64521;BME280;50896;46.714;17.322;2022-08-21T14:32:21;99872.47;;;22.77;60.79
64521;BME280;50896;46.714;17.322;2022-08-21T14:34:52;99873.88;;;22.79;60.57
64521;BME280;50896;46.714;17.322;2022-08-21T14:37:20;99877.63;;;22.78;60.22